Time;durP1;ratioP1;P1;durP2;ratioP2;P2;SDS_P1;SDS_P2;PMS_P1;PMS_P2;Temp;Humidity;BMP_temperature;BMP_pressure;BME280_temperature;BME280_humidity;BME280_pressure;Samples;Min_cycle;Max_cycle;Signal;HPM_P1;HPM_P2
2023/05/28 00:00:57;;;;;;;4.43;3.03;;;;;;;13.92;71.21;101235.66;5013122;28;20209;-75
2023/05/28 00:03:25;;;;;;;3.43;3.10;;;;;;;13.80;71.62;101223.63;5013126;28;20698;-75
2023/05/28 00:05:51;;;;;;;3.70;3.20;;;;;;;13.73;71.83;101222.00;5012740;28;20210;-76
2023/05/28 00:08:20;;;;;;;3.80;3.10;;;;;;;13.81;71.65;101215.69;5012405;28;20299;-75
2023/05/28 00:10:47;;;;;;;3.90;2.93;;;;;;;13.75;71.68;101215.81;5013113;28;20219;-75
2023/05/28 00:13:13;;;;;;;3.97;2.80;;;;;;;13.77;71.98;101208.78;5013347;28;20677;-75
2023/05/28 00:15:39;;;;;;;4.43;3.27;;;;;;;13.70;72.07;101204.56;5013502;28;20496;-75
2023/05/28 00:18:08;;;;;;;4.07;3.20;;;;;;;13.67;72.52;101192.34;5012508;28;20229;-75
2023/05/28 00:20:35;;;;;;;3.30;2.60;;;;;;;13.51;73.98;101176.06;5012768;28;20214;-75
2023/05/28 00:23:01;;;;;;;4.07;3.00;;;;;;;13.48;74.98;101138.56;5012802;28;20284;-75
2023/05/28 00:25:29;;;;;;;3.70;3.40;;;;;;;13.48;74.50;101134.16;5012605;28;20224;-75
2023/05/28 00:27:55;;;;;;;4.33;3.20;;;;;;;13.47;74.34;101126.31;5012457;28;20298;-75
2023/05/28 00:30:23;;;;;;;6.17;4.40;;;;;;;13.45;74.22;101128.97;5012680;28;20208;-75
2023/05/28 00:32:50;;;;;;;4.63;3.10;;;;;;;13.42;74.51;101126.41;5012452;28;20207;-75
2023/05/28 00:35:16;;;;;;;5.80;3.27;;;;;;;13.42;74.70;101115.94;5012681;28;20212;-75
2023/05/28 00:37:43;;;;;;;3.73;3.03;;;;;;;13.45;74.59;101121.09;5012458;28;20202;-75
2023/05/28 00:40:10;;;;;;;4.83;3.40;;;;;;;13.45;74.16;101128.97;5012486;28;20204;-75
2023/05/28 00:42:37;;;;;;;5.57;3.07;;;;;;;13.37;74.79;101128.25;5012562;28;20232;-75
2023/05/28 00:45:04;;;;;;;4.07;3.30;;;;;;;13.33;75.47;101125.72;5012386;28;20210;-74
2023/05/28 00:47:31;;;;;;;4.57;2.90;;;;;;;13.31;75.49;101120.50;5012097;28;20231;-75
2023/05/28 00:50:00;;;;;;;3.53;2.77;;;;;;;13.31;75.57;101115.25;5012351;28;20263;-74
2023/05/28 00:52:27;;;;;;;6.03;3.50;;;;;;;13.33;74.89;101120.50;5012320;28;20298;-75
2023/05/28 00:54:55;;;;;;;4.50;3.57;;;;;;;13.31;74.81;101125.75;5012070;28;20750;-75
2023/05/28 00:57:23;;;;;;;5.50;3.57;;;;;;;13.26;75.19;101127.56;5012274;28;20273;-75
2023/05/28 00:59:51;;;;;;;6.07;3.33;;;;;;;13.24;75.80;101108.38;5012099;28;20318;-75
2023/05/28 01:02:18;;;;;;;5.63;3.30;;;;;;;13.26;76.07;101101.34;5012196;28;20670;-75
2023/05/28 01:04:45;;;;;;;5.40;2.90;;;;;;;13.26;75.29;101109.19;5012481;28;20251;-75
2023/05/28 01:07:11;;;;;;;3.77;3.47;;;;;;;13.11;75.48;101108.59;5011964;28;20745;-75
2023/05/28 01:09:38;;;;;;;4.53;2.70;;;;;;;13.18;75.46;101104.13;5012261;28;20280;-75
2023/05/28 01:12:08;;;;;;;5.03;3.73;;;;;;;13.16;75.22;101107.66;5012123;28;20236;-75
2023/05/28 01:14:37;;;;;;;4.40;2.80;;;;;;;13.11;74.89;101108.59;5011895;28;20613;-74
2023/05/28 01:17:05;;;;;;;4.60;3.57;;;;;;;13.05;75.44;101116.59;5012099;28;20207;-74
2023/05/28 01:19:31;;;;;;;5.60;3.70;;;;;;;12.98;75.53;101116.72;5015805;28;20235;-75
2023/05/28 01:22:04;;;;;;;4.50;3.57;;;;;;;13.00;75.71;101112.31;5016356;28;20214;-74
2023/05/28 01:24:33;;;;;;;4.53;3.33;;;;;;;12.98;75.73;101111.47;5016204;28;20208;-74
2023/05/28 01:27:00;;;;;;;4.27;3.10;;;;;;;12.87;76.86;101096.81;5015785;28;20261;-74
2023/05/28 01:29:27;;;;;;;5.60;3.63;;;;;;;12.96;76.26;101087.06;5016056;28;20233;-75
2023/05/28 01:31:53;;;;;;;4.63;3.40;;;;;;;12.93;76.53;101089.75;5016039;28;20209;-74
2023/05/28 01:34:20;;;;;;;4.87;3.80;;;;;;;12.80;77.16;101082.09;5015795;28;20605;-75
2023/05/28 01:36:52;;;;;;;5.00;3.70;;;;;;;12.83;76.48;101082.06;5015631;28;20212;-74
2023/05/28 01:39:20;;;;;;;5.53;3.63;;;;;;;12.72;77.03;101078.75;5015778;28;20635;-74
2023/05/28 01:41:49;;;;;;;4.40;3.67;;;;;;;12.68;77.20;101067.44;5015618;28;20209;-74
2023/05/28 01:44:19;;;;;;;6.07;3.73;;;;;;;12.58;77.65;101065.03;5015717;28;20678;-74
2023/05/28 01:46:47;;;;;;;3.80;3.50;;;;;;;12.65;77.05;101054.44;5015589;28;20217;-75
2023/05/28 01:49:14;;;;;;;4.77;3.73;;;;;;;12.59;77.10;101067.63;5015534;28;20289;-75
2023/05/28 01:51:40;;;;;;;4.03;3.60;;;;;;;12.50;77.29;101065.16;5015485;28;20211;-75
2023/05/28 01:54:07;;;;;;;4.80;3.70;;;;;;;12.47;77.81;101063.47;5015634;28;20259;-75
2023/05/28 01:56:33;;;;;;;3.97;3.47;;;;;;;12.46;77.99;101058.25;5015370;28;20224;-75
2023/05/28 01:59:02;;;;;;;5.50;3.60;;;;;;;12.46;78.40;101050.38;5015515;28;20226;-75
2023/05/28 02:01:30;;;;;;;4.83;3.37;;;;;;;12.37;78.88;101032.22;5015461;28;20214;-75
2023/05/28 02:03:57;;;;;;;4.63;3.80;;;;;;;12.45;78.90;101006.78;5015068;28;20203;-75
2023/05/28 02:06:24;;;;;;;3.83;3.33;;;;;;;12.51;79.45;101001.44;5013661;28;20732;-75
2023/05/28 02:08:52;;;;;;;5.57;4.00;;;;;;;12.52;78.87;100998.78;5015077;28;20618;-75
2023/05/28 02:11:18;;;;;;;4.77;4.07;;;;;;;12.59;78.98;100996.06;5015057;28;20204;-75
2023/05/28 02:13:46;;;;;;;5.63;4.27;;;;;;;12.31;78.61;101010.50;5014695;28;20213;-74
2023/05/28 02:16:17;;;;;;;5.17;3.90;;;;;;;12.28;79.36;101012.28;5014114;28;20632;-75
2023/05/28 02:18:45;;;;;;;6.17;4.30;;;;;;;12.34;79.36;101000.88;5015000;28;20333;-75
2023/05/28 02:21:11;;;;;;;4.10;3.70;;;;;;;12.35;79.66;101008.69;5013995;28;20207;-74
2023/05/28 02:23:38;;;;;;;4.63;3.63;;;;;;;12.33;79.33;101007.88;5014667;28;20262;-75
2023/05/28 02:26:05;;;;;;;8.10;3.63;;;;;;;12.34;79.55;101004.34;5014390;28;20211;-75
2023/05/28 02:28:31;;;;;;;5.03;4.20;;;;;;;12.29;79.13;101022.75;5014596;28;20285;-75
2023/05/28 02:30:58;;;;;;;4.77;3.57;;;;;;;12.24;78.92;101013.25;5013881;28;20211;-75
2023/05/28 02:33:25;;;;;;;5.35;4.65;;;;;;;12.28;78.53;101023.63;5013455;28;20856;-74
2023/05/28 02:35:52;;;;;;;4.00;3.30;;;;;;;12.18;79.38;101021.19;5014187;28;20261;-75
2023/05/28 02:38:18;;;;;;;3.40;3.00;;;;;;;12.14;79.00;101027.38;5014507;28;20309;-74
2023/05/28 02:40:45;;;;;;;4.40;3.70;;;;;;;11.98;79.00;101029.38;5014435;28;20766;-75
2023/05/28 02:43:11;;;;;;;5.90;4.27;;;;;;;11.90;79.80;101027.72;5014450;28;20270;-74
2023/05/28 02:45:37;;;;;;;4.57;3.20;;;;;;;11.88;80.12;101018.13;5014534;28;20254;-75
2023/05/28 02:48:04;;;;;;;4.53;3.40;;;;;;;11.84;80.47;101003.38;5014213;28;20231;-74
2023/05/28 02:50:32;;;;;;;4.50;3.60;;;;;;;11.85;81.29;100990.28;5014154;28;20211;-75
2023/05/28 02:52:58;;;;;;;3.90;3.20;;;;;;;11.86;81.18;100988.53;5014258;28;20207;-75
2023/05/28 02:55:25;;;;;;;5.40;3.83;;;;;;;11.92;81.13;100984.09;5014356;28;20218;-75
2023/05/28 02:57:52;;;;;;;6.93;3.80;;;;;;;12.00;80.35;100999.66;5014034;28;20679;-75
2023/05/28 03:00:19;;;;;;;5.83;3.57;;;;;;;11.98;79.56;101014.53;5014204;28;20664;-75
2023/05/28 03:02:46;;;;;;;5.00;3.80;;;;;;;12.01;79.51;101024.94;5014173;28;20204;-75
2023/05/28 03:05:12;;;;;;;4.10;3.70;;;;;;;11.94;79.61;101038.16;5014291;28;20210;-75
2023/05/28 03:07:40;;;;;;;4.87;3.40;;;;;;;11.83;79.67;101053.94;5013998;28;20669;-75
2023/05/28 03:10:07;;;;;;;4.17;3.57;;;;;;;11.75;79.68;101053.19;5014034;28;20684;-74
2023/05/28 03:12:33;;;;;;;3.70;3.30;;;;;;;11.75;79.52;101053.19;5014217;28;20213;-74
2023/05/28 03:15:00;;;;;;;6.57;3.60;;;;;;;11.75;79.77;101050.59;5013704;28;20676;-75
2023/05/28 03:17:26;;;;;;;5.47;3.83;;;;;;;11.75;79.46;101047.97;5013567;28;20269;-75
2023/05/28 03:19:53;;;;;;;5.63;4.53;;;;;;;11.72;80.50;101046.28;5013649;28;20656;-75
2023/05/28 03:22:20;;;;;;;6.83;4.00;;;;;;;11.69;81.05;101036.72;5013687;28;20258;-75
2023/05/28 03:24:48;;;;;;;3.90;3.60;;;;;;;11.73;80.84;101032.28;5014016;28;20258;-75
2023/05/28 03:27:14;;;;;;;5.53;3.80;;;;;;;11.73;80.79;101030.56;5012741;28;20215;-75
2023/05/28 03:29:41;;;;;;;5.13;4.13;;;;;;;11.68;81.64;101024.53;5012934;28;20238;-74
2023/05/28 03:32:07;;;;;;;5.07;4.10;;;;;;;11.61;81.32;101014.16;5013469;28;20459;-74
2023/05/28 03:34:35;;;;;;;6.03;4.70;;;;;;;11.60;81.50;101002.84;5013746;28;20635;-75
2023/05/28 03:37:02;;;;;;;4.73;3.97;;;;;;;11.53;82.11;101007.31;5013298;28;20214;-74
2023/05/28 03:39:29;;;;;;;7.20;4.50;;;;;;;11.60;82.28;100992.38;5013349;28;20219;-75
2023/05/28 03:41:57;;;;;;;5.63;4.00;;;;;;;11.62;82.02;100998.47;5012407;28;20212;-75
2023/05/28 03:44:23;;;;;;;5.67;3.60;;;;;;;11.52;82.47;100996.88;5013325;28;20257;-75
2023/05/28 03:46:49;;;;;;;4.80;3.93;;;;;;;11.52;82.68;100989.88;5013394;28;20212;-75
2023/05/28 03:49:16;;;;;;;4.33;3.93;;;;;;;11.50;82.88;100982.94;5013296;28;20234;-75
2023/05/28 03:51:42;;;;;;;4.37;3.83;;;;;;;11.52;82.83;100979.41;5013133;28;20203;-75
2023/05/28 03:54:08;;;;;;;6.03;4.30;;;;;;;11.59;83.44;100974.09;5013129;28;20212;-74
2023/05/28 03:56:35;;;;;;;5.03;3.70;;;;;;;11.58;83.61;100961.94;5012949;28;20298;-74
2023/05/28 03:59:03;;;;;;;5.73;3.90;;;;;;;11.56;83.80;100959.31;5013052;28;20277;-75
2023/05/28 04:01:29;;;;;;;5.40;4.10;;;;;;;11.64;83.72;100954.00;5013586;28;20212;-75
2023/05/28 04:03:56;;;;;;;5.73;4.03;;;;;;;11.68;83.00;100961.75;5013065;28;20619;-75
2023/05/28 04:06:23;;;;;;;5.30;4.00;;;;;;;11.63;83.06;100965.31;5012682;28;20576;-75
2023/05/28 04:08:50;;;;;;;4.53;3.90;;;;;;;11.61;83.04;100973.19;5012733;28;20696;-75
2023/05/28 04:11:16;;;;;;;5.23;3.67;;;;;;;11.52;83.67;100962.88;5012939;28;20257;-75
2023/05/28 04:13:42;;;;;;;5.67;3.90;;;;;;;11.42;84.32;100943.84;5012901;28;20203;-75
2023/05/28 04:16:10;;;;;;;6.17;3.53;;;;;;;11.40;84.82;100937.78;5012980;28;20262;-74
2023/05/28 04:18:36;;;;;;;4.70;4.17;;;;;;;11.42;85.40;100922.94;5011704;28;20227;-74
2023/05/28 04:21:03;;;;;;;6.27;3.93;;;;;;;11.53;85.20;100920.13;5012940;28;20277;-74
2023/05/28 04:23:30;;;;;;;5.23;4.03;;;;;;;11.53;85.18;100925.38;5012910;28;20254;-74
2023/05/28 04:25:56;;;;;;;4.30;3.87;;;;;;;11.58;85.68;100904.41;5012354;28;20214;-74
2023/05/28 04:28:24;;;;;;;5.50;3.50;;;;;;;11.64;85.65;100909.53;5012071;28;20229;-74
2023/05/28 04:30:51;;;;;;;3.50;3.20;;;;;;;11.65;86.19;100912.09;5004576;28;20236;-74
2023/05/28 04:33:20;;;;;;;6.73;3.80;;;;;;;11.73;86.30;100910.25;5012557;28;20660;-74
2023/05/28 04:35:47;;;;;;;4.90;3.73;;;;;;;11.75;86.56;100904.13;5012649;28;20206;-74
2023/05/28 04:38:13;;;;;;;5.30;3.40;;;;;;;11.73;87.32;100907.63;5012483;28;20301;-74
2023/05/28 04:40:40;;;;;;;6.10;4.20;;;;;;;11.83;86.01;100913.59;5012486;28;20206;-74
2023/05/28 04:43:06;;;;;;;6.57;3.90;;;;;;;11.95;83.91;100945.69;5012586;28;20217;-74
2023/05/28 04:45:34;;;;;;;3.90;3.33;;;;;;;11.92;83.51;100968.38;5012470;28;20212;-74
2023/05/28 04:48:01;;;;;;;6.20;4.47;;;;;;;12.04;82.65;101000.47;5012206;28;20238;-74
2023/05/28 04:50:28;;;;;;;4.53;4.13;;;;;;;12.08;82.36;101023.09;5012372;28;20286;-74
2023/05/28 04:52:55;;;;;;;4.57;3.77;;;;;;;12.11;81.77;101038.75;5012052;28;20250;-74
2023/05/28 04:55:22;;;;;;;4.30;3.90;;;;;;;12.11;81.41;101042.22;5012169;28;20222;-74
2023/05/28 04:57:48;;;;;;;4.17;3.77;;;;;;;12.14;81.41;101066.63;5040239;23;20240;-74
2023/05/28 05:00:15;;;;;;;4.73;4.33;;;;;;;12.08;82.50;101055.34;5031517;28;20253;-74
2023/05/28 05:02:42;;;;;;;5.83;4.23;;;;;;;12.14;82.73;101036.06;5031938;28;20258;-73
2023/05/28 05:05:09;;;;;;;4.33;3.93;;;;;;;12.22;82.79;101020.25;5031639;28;20203;-74
2023/05/28 05:07:38;;;;;;;5.10;4.60;;;;;;;12.30;84.10;101018.38;5031340;28;20217;-74
2023/05/28 05:10:07;;;;;;;5.47;3.90;;;;;;;12.31;85.19;100991.31;5031848;28;20230;-74
2023/05/28 05:12:34;;;;;;;4.20;3.77;;;;;;;12.38;85.00;100977.22;5031836;28;20205;-74
2023/05/28 05:15:00;;;;;;;5.33;4.17;;;;;;;12.46;84.95;100977.94;5031714;28;20202;-74
2023/05/28 05:17:27;;;;;;;4.80;4.00;;;;;;;12.57;85.75;100967.28;5031617;28;20317;-74
2023/05/28 05:19:53;;;;;;;5.60;4.10;;;;;;;12.74;85.39;100966.09;5031832;28;20226;-74
2023/05/28 05:22:19;;;;;;;6.40;4.40;;;;;;;12.97;83.84;100974.34;5031645;28;20669;-74
2023/05/28 05:24:48;;;;;;;4.63;4.27;;;;;;;13.15;83.22;100999.31;5031601;28;20260;-74
2023/05/28 05:27:14;;;;;;;5.83;3.93;;;;;;;13.28;82.57;101015.69;5031618;28;20567;-74
2023/05/28 05:29:41;;;;;;;5.00;4.50;;;;;;;13.33;82.31;101032.19;5031220;28;20838;-74
2023/05/28 05:32:07;;;;;;;4.70;4.30;;;;;;;13.34;81.74;101046.16;5030675;28;20267;-74
2023/05/28 05:34:34;;;;;;;4.23;3.93;;;;;;;13.37;82.21;101046.97;5030613;28;20211;-74
2023/05/28 05:37:00;;;;;;;6.20;4.40;;;;;;;13.35;82.79;101063.63;5031436;28;20209;-74
2023/05/28 05:39:26;;;;;;;5.20;4.80;;;;;;;13.30;83.67;101041.00;5031375;28;20220;-74
2023/05/28 05:41:54;;;;;;;6.00;4.53;;;;;;;13.37;83.57;101031.22;5031104;28;20217;-74
2023/05/28 05:44:21;;;;;;;5.83;4.53;;;;;;;13.41;83.09;101038.13;5031442;28;20251;-74
2023/05/28 05:46:47;;;;;;;5.07;4.23;;;;;;;13.39;83.14;101042.56;5031005;28;20613;-74
2023/05/28 05:49:14;;;;;;;5.07;4.40;;;;;;;13.03;84.18;101046.75;5031021;28;20708;-74
2023/05/28 05:51:41;;;;;;;5.10;4.60;;;;;;;12.90;85.57;101006.81;5031603;28;20212;-74
2023/05/28 05:54:07;;;;;;;5.23;4.70;;;;;;;12.86;85.33;100999.91;5031705;28;20254;-73
2023/05/28 05:56:34;;;;;;;7.00;5.20;;;;;;;13.01;83.83;101009.22;5031270;28;20266;-74
2023/05/28 05:59:01;;;;;;;8.97;4.83;;;;;;;13.07;83.94;101017.81;5030907;28;20647;-74
2023/05/28 06:01:29;;;;;;;5.30;4.50;;;;;;;13.25;82.23;101045.44;5031016;28;20210;-74
2023/05/28 06:03:56;;;;;;;7.57;5.00;;;;;;;13.37;80.77;101086.31;5031289;28;20261;-74
2023/05/28 06:06:22;;;;;;;4.60;4.20;;;;;;;13.43;81.25;101096.66;5033861;28;20307;-73
2023/05/28 06:08:49;;;;;;;5.47;4.70;;;;;;;13.51;80.92;101107.84;5034746;28;20235;-74
2023/05/28 06:11:16;;;;;;;5.10;4.60;;;;;;;13.55;81.32;101111.28;5034877;28;20257;-73
2023/05/28 06:13:42;;;;;;;6.30;4.87;;;;;;;13.43;81.86;101106.28;5035001;28;20204;-74
2023/05/28 06:16:10;;;;;;;7.17;4.83;;;;;;;13.54;82.20;101100.81;5034668;28;20209;-74
2023/05/28 06:18:37;;;;;;;6.27;4.17;;;;;;;13.47;83.12;101076.50;5034506;28;20732;-74
2023/05/28 06:21:04;;;;;;;6.20;5.27;;;;;;;13.46;83.38;101067.78;5034611;28;20207;-74
2023/05/28 06:23:30;;;;;;;5.77;4.73;;;;;;;13.31;82.04;101091.66;5034655;28;20205;-74
2023/05/28 06:25:57;;;;;;;4.63;4.27;;;;;;;13.24;81.63;101106.63;5034854;28;20211;-74
2023/05/28 06:28:23;;;;;;;5.93;5.33;;;;;;;13.19;83.16;101092.75;5034182;28;20235;-73
2023/05/28 06:30:49;;;;;;;5.50;5.00;;;;;;;13.20;84.49;101064.75;5034098;28;20236;-74
2023/05/28 06:33:17;;;;;;;5.23;4.43;;;;;;;13.08;82.83;101060.63;5034702;28;20207;-73
2023/05/28 06:35:44;;;;;;;5.17;4.60;;;;;;;13.15;82.43;101070.09;5034525;28;20640;-74
2023/05/28 06:38:10;;;;;;;6.77;4.83;;;;;;;13.25;82.58;101074.25;5034124;28;20232;-73
2023/05/28 06:40:37;;;;;;;9.57;5.33;;;;;;;13.42;82.14;101083.56;5034206;28;20208;-74
2023/05/28 06:43:03;;;;;;;5.17;4.63;;;;;;;13.58;82.94;101076.28;5034099;28;20278;-74
2023/05/28 06:45:32;;;;;;;7.53;4.50;;;;;;;13.71;81.92;101088.22;5033830;28;20706;-74
2023/05/28 06:47:59;;;;;;;6.50;4.57;;;;;;;13.82;81.49;101091.47;5034347;28;20229;-74
2023/05/28 06:50:26;;;;;;;5.70;5.10;;;;;;;13.88;82.33;101096.59;5034044;28;20779;-73
2023/05/28 06:52:53;;;;;;;8.17;4.90;;;;;;;14.00;81.24;101100.72;5034114;28;20203;-74
2023/05/28 06:55:19;;;;;;;6.53;4.20;;;;;;;14.17;79.51;101123.09;5033925;28;20695;-74
2023/05/28 06:57:46;;;;;;;7.10;4.60;;;;;;;14.19;78.23;101161.56;5033680;28;20223;-73
2023/05/28 07:00:16;;;;;;;5.57;4.00;;;;;;;14.29;78.40;101181.47;5033904;28;20624;-74
2023/05/28 07:02:43;;;;;;;7.50;4.50;;;;;;;14.43;78.20;101182.88;5034112;28;20220;-74
2023/05/28 07:05:09;;;;;;;6.60;3.83;;;;;;;14.56;76.23;101223.78;5034107;28;20209;-74
2023/05/28 07:07:38;;;;;;;4.10;3.70;;;;;;;14.72;73.63;101278.63;5033613;28;20205;-74
2023/05/28 07:10:04;;;;;;;4.90;3.80;;;;;;;14.82;72.11;101333.56;5033253;28;20317;-74
2023/05/28 07:12:31;;;;;;;5.47;3.70;;;;;;;14.92;71.98;101371.03;5033985;28;20270;-74
2023/05/28 07:14:57;;;;;;;4.80;3.90;;;;;;;15.02;71.94;101393.56;5033824;28;20217;-73
2023/05/28 07:17:24;;;;;;;5.97;4.27;;;;;;;15.12;70.24;101425.81;5033469;28;20213;-74
2023/05/28 07:19:50;;;;;;;6.70;4.67;;;;;;;15.23;70.54;101455.38;5033643;28;20229;-73
2023/05/28 07:22:17;;;;;;;6.07;4.73;;;;;;;15.30;70.87;101453.47;5033508;28;20209;-73
2023/05/28 07:24:44;;;;;;;5.80;4.23;;;;;;;15.32;71.51;101448.16;5033011;28;20663;-73
2023/05/28 07:27:11;;;;;;;6.47;3.73;;;;;;;15.38;71.46;101441.03;5033111;28;20742;-74
2023/05/28 07:29:37;;;;;;;4.63;3.70;;;;;;;15.50;69.73;101458.31;5032724;28;20744;-74
2023/05/28 07:32:04;;;;;;;7.17;4.00;;;;;;;15.61;69.25;101476.47;5033487;28;20258;-74
2023/05/28 07:34:30;;;;;;;5.17;3.23;;;;;;;15.66;68.88;101500.91;5046600;28;20209;-80
2023/05/28 07:36:57;;;;;;;3.90;3.50;;;;;;;15.69;69.12;101514.00;5051945;28;20505;-80
2023/05/28 07:39:23;;;;;;;5.37;4.20;;;;;;;15.68;68.07;101522.81;5053184;28;20225;-80
2023/05/28 07:41:51;;;;;;;4.77;3.70;;;;;;;15.71;70.55;101504.28;5053564;28;20213;-81
2023/05/28 07:44:17;;;;;;;6.40;3.80;;;;;;;15.82;69.31;101481.25;5054104;28;20248;-80
2023/05/28 07:46:43;;;;;;;4.20;3.53;;;;;;;15.85;69.02;101490.84;5047094;28;20627;-80
2023/05/28 07:49:10;;;;;;;5.10;3.77;;;;;;;15.94;69.13;101492.41;5047284;28;20229;-81
2023/05/28 07:51:36;;;;;;;5.80;3.70;;;;;;;16.02;70.58;101486.03;5048863;28;20236;-81
2023/05/28 07:54:03;;;;;;;5.70;3.50;;;;;;;16.12;72.07;101423.44;5048466;28;20216;-81
2023/05/28 07:56:30;;;;;;;4.60;3.73;;;;;;;16.16;68.34;101438.28;5045770;28;20209;-81
2023/05/28 07:58:57;;;;;;;6.50;3.13;;;;;;;16.32;67.72;101472.97;5043196;28;20245;-80
2023/05/28 08:01:24;;;;;;;5.13;3.50;;;;;;;16.42;65.73;101521.03;5044108;28;20213;-81
2023/05/28 08:03:54;;;;;;;7.73;3.57;;;;;;;16.35;64.22;101573.06;5045314;28;20647;-81
2023/05/28 08:06:20;;;;;;;7.10;3.93;;;;;;;16.40;66.60;101586.97;5045193;28;20209;-81
2023/05/28 08:08:46;;;;;;;5.50;3.73;;;;;;;16.41;66.76;101567.63;5048802;28;20237;-81
2023/05/28 08:11:14;;;;;;;4.97;3.50;;;;;;;16.51;64.97;101573.53;5048257;28;20223;-81
2023/05/28 08:13:41;;;;;;;4.73;3.43;;;;;;;16.63;64.50;101591.66;5048844;28;20237;-81
2023/05/28 08:16:11;;;;;;;5.93;3.60;;;;;;;16.68;66.79;101583.63;5048024;28;20668;-81
2023/05/28 08:18:39;;;;;;;4.30;3.63;;;;;;;16.80;63.98;101572.75;5048104;28;20252;-80
2023/05/28 08:21:06;;;;;;;4.97;3.13;;;;;;;16.84;62.84;101616.63;5045387;28;20216;-80
2023/05/28 08:23:34;;;;;;;7.00;3.47;;;;;;;16.91;63.29;101638.44;5049255;28;20206;-80
2023/05/28 08:26:01;;;;;;;4.00;3.70;;;;;;;17.03;64.15;101630.19;5045709;28;20193;-80
2023/05/28 08:28:27;;;;;;;4.73;3.77;;;;;;;17.14;64.85;101626.41;5046690;28;20232;-81
2023/05/28 08:30:54;;;;;;;4.80;3.77;;;;;;;17.18;63.55;101570.00;5048037;28;20284;-81
2023/05/28 08:33:21;;;;;;;9.17;5.23;;;;;;;17.33;67.25;101545.81;5048352;28;20271;-80
2023/05/28 08:35:48;;;;;;;12.17;4.20;;;;;;;17.44;63.55;101554.28;5044434;28;20240;-80
2023/05/28 08:38:14;;;;;;;5.90;2.80;;;;;;;17.58;62.25;101567.06;5042323;28;20591;-80
2023/05/28 08:40:43;;;;;;;4.33;3.57;;;;;;;17.57;59.23;101672.72;5046828;28;20204;-81
2023/05/28 08:43:10;;;;;;;3.70;3.03;;;;;;;17.61;58.56;101735.09;5051104;28;20251;-80
2023/05/28 08:48:23;;;;;;;4.80;3.60;;;;;;;17.76;57.42;101779.59;5044651;28;20364;-80
2023/05/28 08:50:52;;;;;;;5.13;3.27;;;;;;;17.77;60.58;101796.28;5049368;28;20230;-80
2023/05/28 08:53:21;;;;;;;4.97;3.13;;;;;;;17.77;58.80;101843.81;5050067;28;20226;-79
2023/05/28 08:55:48;;;;;;;4.13;3.63;;;;;;;17.89;59.24;101789.84;5051004;28;20221;-79
2023/05/28 08:58:15;;;;;;;4.63;3.10;;;;;;;17.91;59.33;101780.09;5050690;28;20333;-79
2023/05/28 09:00:41;;;;;;;3.00;2.27;;;;;;;17.99;54.25;101786.03;5050008;28;20266;-78
2023/05/28 09:03:08;;;;;;;3.80;2.47;;;;;;;18.02;53.30;101894.28;5048006;28;20267;-78
2023/05/28 09:05:38;;;;;;;4.37;2.60;;;;;;;18.15;56.22;101866.59;5044234;28;20206;-78
2023/05/28 09:08:07;;;;;;;6.50;3.00;;;;;;;18.19;54.35;101870.03;5044764;28;20314;-78
2023/05/28 09:10:33;;;;;;;3.83;2.70;;;;;;;18.36;55.18;101851.91;5044886;28;20300;-78
2023/05/28 09:13:01;;;;;;;5.07;3.20;;;;;;;18.41;54.21;101889.69;5044922;28;20226;-78
2023/05/28 09:15:32;;;;;;;4.07;2.90;;;;;;;18.47;55.29;101888.59;5044590;28;20295;-78
2023/05/28 09:18:00;;;;;;;3.50;2.57;;;;;;;18.50;54.82;101882.38;5047637;28;20268;-78
2023/05/28 09:20:26;;;;;;;4.20;2.67;;;;;;;18.55;53.86;101880.47;5044637;28;20270;-78
2023/05/28 09:23:00;;;;;;;3.57;1.93;;;;;;;18.62;52.35;101905.81;5043924;28;20236;-79
2023/05/28 09:25:28;;;;;;;3.53;2.37;;;;;;;18.66;51.40;101941.84;5041721;28;20220;-78
2023/05/28 09:27:55;;;;;;;4.00;2.60;;;;;;;18.72;50.67;101975.22;5043044;28;20245;-78
2023/05/28 09:30:22;;;;;;;3.93;2.77;;;;;;;18.85;52.97;101979.28;5042941;28;20229;-78
2023/05/28 09:32:56;;;;;;;4.13;3.23;;;;;;;18.95;51.40;101962.22;5043712;28;20269;-78
2023/05/28 09:35:25;;;;;;;5.10;2.90;;;;;;;18.89;48.38;101986.22;5042900;28;20209;-78
2023/05/28 09:38:01;;;;;;;3.27;2.37;;;;;;;18.95;49.86;102023.09;5042987;28;20231;-78
2023/05/28 09:40:28;;;;;;;3.20;2.47;;;;;;;18.98;49.46;102027.41;5046370;28;20221;-78
2023/05/28 09:42:54;;;;;;;5.37;3.03;;;;;;;19.02;49.51;102042.28;5043976;28;20263;-83
2023/05/28 09:45:23;;;;;;;2.47;2.23;;;;;;;19.08;49.02;102049.19;5042226;28;20686;-83
2023/05/28 09:47:50;;;;;;;2.63;2.43;;;;;;;19.11;49.74;102067.59;5039564;28;20212;-82
2023/05/28 09:50:17;;;;;;;3.33;2.50;;;;;;;19.21;48.72;102064.69;5041655;28;20701;-82
2023/05/28 09:52:45;;;;;;;3.27;2.33;;;;;;;19.37;47.10;102062.44;5021374;28;20210;-83
2023/05/28 09:55:15;;;;;;;4.40;2.60;;;;;;;19.36;47.25;102099.56;5029819;28;20196;-81
2023/05/28 09:57:46;;;;;;;3.37;2.37;;;;;;;19.36;46.55;102112.78;5039777;28;20278;-82
2023/05/28 10:00:22;;;;;;;3.20;2.47;;;;;;;19.43;48.81;102114.38;5040702;28;20213;-82
2023/05/28 10:02:59;;;;;;;2.30;2.10;;;;;;;19.57;48.16;102066.28;5040179;28;20689;-80
2023/05/28 10:05:30;;;;;;;3.27;2.50;;;;;;;19.62;48.46;102064.34;5039721;28;20199;-80
2023/05/28 10:08:00;;;;;;;3.63;2.30;;;;;;;19.70;47.21;102053.50;5038876;28;20235;-79
2023/05/28 10:10:29;;;;;;;3.70;2.40;;;;;;;19.76;48.90;102066.59;5038471;28;20226;-80
2023/05/28 10:12:58;;;;;;;3.33;2.20;;;;;;;19.90;50.41;101997.25;5037665;28;20225;-81
2023/05/28 10:15:24;;;;;;;4.67;2.83;;;;;;;19.96;46.29;102016.47;5037913;28;20252;-80
2023/05/28 10:17:51;;;;;;;3.27;2.23;;;;;;;19.97;46.86;102075.66;5037764;28;20214;-81
2023/05/28 10:20:19;;;;;;;2.43;2.23;;;;;;;20.03;46.47;102096.66;5037537;28;20667;-80
2023/05/28 10:22:47;;;;;;;4.07;2.10;;;;;;;20.08;46.52;102073.53;5037648;28;20613;-81
2023/05/28 10:25:14;;;;;;;2.43;2.00;;;;;;;20.14;45.35;102107.78;5038125;28;20293;-81
2023/05/28 10:27:45;;;;;;;2.57;2.30;;;;;;;20.22;45.83;102105.75;5037934;28;20264;-82
2023/05/28 10:30:13;;;;;;;3.33;2.30;;;;;;;20.31;46.39;102087.81;5039657;28;20265;-82
2023/05/28 10:32:40;;;;;;;2.90;1.70;;;;;;;20.32;44.80;102116.94;5039598;28;20762;-82
2023/05/28 10:35:09;;;;;;;4.50;2.53;;;;;;;20.29;44.21;102172.72;5038570;28;20213;-83
2023/05/28 10:37:36;;;;;;;2.73;2.13;;;;;;;20.36;45.98;102187.53;5038056;28;20694;-80
2023/05/28 10:40:03;;;;;;;3.27;2.30;;;;;;;20.46;46.60;102132.41;5037681;28;20233;-80
2023/05/28 10:42:30;;;;;;;3.83;2.03;;;;;;;20.51;44.91;102130.44;5037961;28;20206;-80
2023/05/28 10:45:09;;;;;;;3.17;2.20;;;;;;;20.63;44.08;102123.88;5039123;28;20206;-80
2023/05/28 10:47:37;;;;;;;3.13;2.10;;;;;;;20.66;43.17;102158.28;5038967;28;20206;-81
2023/05/28 10:50:14;;;;;;;3.97;2.30;;;;;;;20.76;43.64;102186.25;5040150;28;20206;-82
2023/05/28 10:52:41;;;;;;;2.50;2.30;;;;;;;20.86;42.92;102192.13;5041894;28;20218;-82
2023/05/28 10:55:09;;;;;;;3.27;1.93;;;;;;;20.99;44.59;102219.09;5040616;28;20210;-82
2023/05/28 10:57:44;;;;;;;5.33;2.47;;;;;;;21.14;41.45;102191.16;5054296;23;20281;-78
2023/05/28 11:00:14;;;;;;;2.53;2.33;;;;;;;21.21;41.30;102221.91;5037684;28;20228;-77
2023/05/28 11:02:43;;;;;;;3.90;2.80;;;;;;;21.27;41.84;102280.13;5037857;28;20214;-80
2023/05/28 11:05:10;;;;;;;3.23;2.43;;;;;;;21.39;40.80;102273.53;5037093;28;20618;-79
2023/05/28 11:07:38;;;;;;;3.67;2.70;;;;;;;21.57;42.62;102254.28;5038390;28;20240;-80
2023/05/28 11:10:06;;;;;;;2.20;2.00;;;;;;;21.71;41.23;102260.91;5038013;28;20745;-80
2023/05/28 11:12:35;;;;;;;3.93;2.50;;;;;;;21.82;42.63;102282.63;5039039;28;20257;-80
2023/05/28 11:15:01;;;;;;;2.80;2.50;;;;;;;22.02;40.62;102226.03;5037034;28;20260;-80
2023/05/28 11:17:29;;;;;;;3.43;2.30;;;;;;;22.16;40.13;102258.31;5037872;28;20210;-80
2023/05/28 11:19:56;;;;;;;2.73;2.10;;;;;;;22.35;41.54;102255.81;5038274;28;20424;-78
2023/05/28 11:22:22;;;;;;;2.27;2.07;;;;;;;22.40;39.19;102274.28;5038241;28;20678;-81
2023/05/28 11:24:58;;;;;;;2.97;2.40;;;;;;;22.63;39.99;102301.75;5039306;28;20271;-79
2023/05/28 11:27:25;;;;;;;3.27;2.57;;;;;;;22.82;38.71;102300.09;5044782;28;20275;-78